Time;durP1;ratioP1;P1;durP2;ratioP2;P2;SDS_P1;SDS_P2;PMS_P1;PMS_P2;Temp;Humidity;BMP_temperature;BMP_pressure;BME280_temperature;BME280_humidity;BME280_pressure;Samples;Min_cycle;Max_cycle;Signal;HPM_P1;HPM_P2
2022/04/18 00:02:22;;;;;;;7.97;2.97;;;;;;;10.71;31.94;100363.66;5014847;28;20523;-84
2022/04/18 00:04:48;;;;;;;6.35;2.83;;;;;;;10.80;31.76;100364.88;5006247;28;20046;-83
2022/04/18 00:07:13;;;;;;;7.03;2.95;;;;;;;10.53;32.39;100364.75;5010578;28;20022;-83
2022/04/18 00:09:39;;;;;;;6.07;2.90;;;;;;;10.57;31.92;100360.47;5026005;28;20067;-84
2022/04/18 00:12:05;;;;;;;7.30;3.45;;;;;;;10.62;32.26;100352.34;5005187;28;20299;-84
2022/04/18 00:14:30;;;;;;;5.93;2.72;;;;;;;10.67;31.86;100352.44;5026017;28;20021;-84
2022/04/18 00:16:56;;;;;;;5.60;2.83;;;;;;;10.62;32.10;100353.19;5024786;28;20029;-84
2022/04/18 00:19:22;;;;;;;6.55;3.17;;;;;;;10.69;32.06;100347.56;5025675;28;20022;-84
2022/04/18 00:21:47;;;;;;;5.63;3.25;;;;;;;10.66;32.14;100341.78;5010730;28;20087;-83
2022/04/18 00:27:15;;;;;;;8.20;3.85;;;;;;;10.55;32.55;100336.19;5004777;28;20603;-84
2022/04/18 00:29:40;;;;;;;7.63;3.70;;;;;;;10.55;32.60;100338.91;5005260;28;20026;-83
2022/04/18 00:32:06;;;;;;;8.53;2.77;;;;;;;10.48;32.62;100338.22;5005086;28;20757;-84
2022/04/18 00:34:32;;;;;;;4.85;2.50;;;;;;;10.49;32.18;100332.56;5005241;28;20299;-83
2022/04/18 00:36:57;;;;;;;8.05;2.30;;;;;;;10.60;32.17;100336.25;4987176;28;20072;-82
2022/04/18 00:39:22;;;;;;;4.55;3.00;;;;;;;10.48;32.26;100330.88;5005071;28;20217;-84
2022/04/18 00:41:48;;;;;;;6.53;3.45;;;;;;;10.34;32.42;100327.66;5017573;28;20116;-83
2022/04/18 00:44:13;;;;;;;7.22;2.35;;;;;;;10.34;32.74;100319.50;5025974;28;20028;-84
2022/04/18 00:46:38;;;;;;;5.03;2.65;;;;;;;10.54;32.46;100328.22;5023430;28;20447;-84
2022/04/18 00:49:04;;;;;;;4.68;2.40;;;;;;;10.53;32.30;100321.97;5025215;28;20024;-84
2022/04/18 00:51:29;;;;;;;4.63;2.00;;;;;;;10.61;32.35;100323.44;5011721;28;20032;-82
2022/04/18 00:53:57;;;;;;;5.65;2.15;;;;;;;10.56;32.30;100329.66;5004655;28;20025;-84
2022/04/18 00:56:23;;;;;;;8.63;3.42;;;;;;;10.54;32.39;100331.78;5005702;28;20304;-84
2022/04/18 00:58:50;;;;;;;5.70;2.75;;;;;;;10.60;32.47;100325.34;4986387;28;20029;-83
2022/04/18 01:01:16;;;;;;;5.95;2.38;;;;;;;10.47;32.47;100328.41;5004037;28;20113;-84
2022/04/18 01:03:43;;;;;;;3.47;2.03;;;;;;;10.46;32.78;100321.28;5004221;28;20615;-83
2022/04/18 01:06:10;;;;;;;4.75;2.47;;;;;;;10.45;33.04;100316.91;5004655;28;20030;-84
2022/04/18 01:08:35;;;;;;;5.57;2.50;;;;;;;10.55;32.31;100314.38;5021332;28;20026;-84
2022/04/18 01:11:02;;;;;;;3.85;1.95;;;;;;;10.47;32.70;100312.88;5015702;28;20032;-84
2022/04/18 01:13:28;;;;;;;5.13;1.95;;;;;;;10.30;33.34;100307.44;4986924;28;20136;-84
2022/04/18 01:15:55;;;;;;;3.45;1.98;;;;;;;10.27;33.27;100307.94;5003483;28;20049;-84
2022/04/18 01:18:21;;;;;;;6.82;2.50;;;;;;;10.24;33.51;100303.81;5005513;28;20040;-84
2022/04/18 01:20:47;;;;;;;5.85;2.95;;;;;;;10.31;33.38;100306.38;5003060;28;20441;-83
2022/04/18 01:23:13;;;;;;;4.10;2.00;;;;;;;10.38;33.39;100298.84;5003924;28;20037;-84
2022/04/18 01:31:07;;;;;;;5.05;2.47;;;;;;;10.08;34.12;100289.13;5013309;28;19962;-84
2022/04/18 01:33:32;;;;;;;4.13;2.30;;;;;;;9.93;34.33;100287.81;5003894;28;20061;-85
2022/04/18 01:35:57;;;;;;;5.15;2.45;;;;;;;10.18;34.46;100295.81;5005106;28;20033;-84
2022/04/18 01:38:23;;;;;;;10.27;2.35;;;;;;;10.10;34.31;100286.16;5003549;28;20072;-83
2022/04/18 01:40:48;;;;;;;3.88;1.90;;;;;;;9.99;34.55;100290.59;5010424;28;20499;-83
2022/04/18 01:43:14;;;;;;;3.65;2.13;;;;;;;10.06;34.13;100282.28;5023227;28;20025;-84
2022/04/18 01:45:39;;;;;;;4.30;2.38;;;;;;;10.08;34.39;100283.69;5023633;28;20392;-84
2022/04/18 01:48:05;;;;;;;7.68;2.58;;;;;;;10.11;34.39;100279.66;5023822;28;20036;-84
2022/04/18 01:50:30;;;;;;;5.22;2.10;;;;;;;9.84;35.00;100281.13;5021994;28;20022;-84
2022/04/18 01:52:55;;;;;;;3.90;1.97;;;;;;;10.13;34.46;100286.47;5024462;28;20208;-84
2022/04/18 01:55:21;;;;;;;6.40;2.13;;;;;;;10.09;34.67;100285.31;5022755;28;20271;-83
2022/04/18 01:57:46;;;;;;;5.05;2.28;;;;;;;10.28;33.92;100285.06;5024291;28;20021;-83
2022/04/18 02:00:12;;;;;;;6.37;2.67;;;;;;;10.44;34.20;100282.53;5022765;28;20036;-84
2022/04/18 02:02:37;;;;;;;3.72;2.00;;;;;;;10.58;34.29;100277.59;5011290;28;20264;-83
2022/04/18 02:05:04;;;;;;;9.90;3.20;;;;;;;10.50;34.35;100285.13;5003786;28;20061;-85
2022/04/18 02:07:29;;;;;;;4.85;1.63;;;;;;;10.44;35.01;100282.53;5010827;28;20741;-84
2022/04/18 02:09:55;;;;;;;4.90;2.00;;;;;;;10.25;34.85;100283.66;5023867;28;20109;-84
2022/04/18 02:12:20;;;;;;;6.20;2.60;;;;;;;10.04;35.29;100279.81;5021729;28;20120;-84
2022/04/18 02:14:45;;;;;;;4.88;2.47;;;;;;;10.14;35.78;100282.69;5023685;28;20289;-84
2022/04/18 02:17:11;;;;;;;3.73;1.97;;;;;;;10.28;35.49;100285.06;5021057;28;20042;-84
2022/04/18 02:19:36;;;;;;;4.83;2.17;;;;;;;10.06;35.85;100285.81;5023132;28;20326;-85
2022/04/18 02:22:01;;;;;;;6.07;2.07;;;;;;;10.21;35.52;100287.13;5022646;28;20283;-84
2022/04/18 02:24:27;;;;;;;6.25;1.88;;;;;;;10.39;35.70;100283.31;5022957;28;20266;-84
2022/04/18 02:26:52;;;;;;;3.13;1.80;;;;;;;10.30;36.21;100284.81;5023805;28;20092;-84
2022/04/18 02:29:18;;;;;;;4.75;2.70;;;;;;;10.04;36.04;100277.91;5021538;28;20308;-83
2022/04/18 02:34:27;;;;;;;5.72;2.67;;;;;;;10.07;36.44;100265.66;5004648;28;20404;-85
2022/04/18 02:39:36;;;;;;;3.77;1.67;;;;;;;9.78;37.13;100257.63;5007121;28;20310;-84
2022/04/18 02:42:02;;;;;;;5.00;2.70;;;;;;;9.86;37.39;100257.19;5005660;28;20299;-83
2022/04/18 02:44:28;;;;;;;5.68;3.50;;;;;;;9.82;37.36;100258.78;5008493;28;20448;-82
2022/04/18 02:46:53;;;;;;;5.03;2.20;;;;;;;9.86;37.65;100254.47;5005045;28;20160;-84
2022/04/18 02:49:18;;;;;;;3.10;1.80;;;;;;;9.74;37.82;100253.72;5008331;28;20018;-83
2022/04/18 02:51:43;;;;;;;5.13;2.80;;;;;;;9.37;38.69;100252.28;5020239;28;20033;-84
2022/04/18 02:54:09;;;;;;;3.93;2.20;;;;;;;9.61;38.30;100252.13;5026657;28;20537;-84
2022/04/18 02:56:34;;;;;;;7.83;2.80;;;;;;;9.61;38.53;100252.97;5027154;28;20708;-84
2022/04/18 02:58:59;;;;;;;6.38;2.53;;;;;;;9.88;38.14;100251.50;5026498;28;20274;-84
2022/04/18 03:01:24;;;;;;;4.33;2.20;;;;;;;9.89;37.84;100247.69;5024361;28;20627;-84
2022/04/18 03:03:50;;;;;;;4.47;2.25;;;;;;;9.93;38.21;100249.69;5006058;28;20256;-83
2022/04/18 03:06:15;;;;;;;4.20;1.88;;;;;;;10.04;38.45;100238.94;5007410;28;20492;-84
2022/04/18 03:08:40;;;;;;;5.57;2.20;;;;;;;9.80;39.09;100233.69;5005525;28;20748;-84
2022/04/18 03:11:06;;;;;;;5.57;2.28;;;;;;;9.74;39.73;100237.41;5016822;28;20033;-84
2022/04/18 03:13:33;;;;;;;4.80;2.30;;;;;;;9.68;39.67;100239.22;5006455;28;20037;-84
2022/04/18 03:15:59;;;;;;;4.28;1.95;;;;;;;9.72;39.12;100232.19;5006374;28;20487;-84
2022/04/18 03:18:25;;;;;;;5.40;2.42;;;;;;;9.53;40.17;100234.31;5007154;28;20022;-83
2022/04/18 03:20:51;;;;;;;5.28;2.17;;;;;;;9.66;39.45;100228.53;5011051;28;20021;-84
2022/04/18 03:23:17;;;;;;;4.68;2.47;;;;;;;9.65;39.78;100234.25;5027516;28;20029;-83
2022/04/18 03:25:42;;;;;;;7.88;2.20;;;;;;;9.67;40.08;100219.31;5025254;28;20029;-84
2022/04/18 03:28:09;;;;;;;6.07;2.53;;;;;;;9.72;40.88;100220.47;5027269;28;20353;-87
2022/04/18 03:30:34;;;;;;;4.93;2.40;;;;;;;9.30;40.62;100222.50;5024699;28;20259;-84
2022/04/18 03:32:59;;;;;;;5.95;1.92;;;;;;;9.19;41.81;100216.06;5012249;28;20041;-83
2022/04/18 03:35:24;;;;;;;5.55;2.78;;;;;;;9.32;42.25;100213.03;5006432;28;20057;-82
2022/04/18 03:40:34;;;;;;;7.77;3.13;;;;;;;9.35;41.09;100217.16;5011470;28;20594;-84
2022/04/18 03:42:59;;;;;;;6.07;2.00;;;;;;;9.51;40.68;100215.53;5025508;28;20029;-83
2022/04/18 03:45:24;;;;;;;5.03;2.20;;;;;;;9.45;40.52;100206.44;5025404;28;20412;-85
2022/04/18 03:47:50;;;;;;;6.30;2.38;;;;;;;9.22;41.32;100213.66;5025017;28;20300;-84
2022/04/18 03:50:15;;;;;;;5.97;1.77;;;;;;;9.36;41.49;100213.34;5024487;28;20128;-83
2022/04/18 03:52:40;;;;;;;5.53;1.80;;;;;;;9.54;41.36;100211.50;5007100;28;20049;-83
2022/04/18 03:55:06;;;;;;;6.50;2.50;;;;;;;9.37;40.92;100214.19;5005304;28;20037;-83
2022/04/18 03:57:31;;;;;;;5.53;2.33;;;;;;;9.67;41.17;100213.88;5007213;28;20025;-84
2022/04/18 03:59:57;;;;;;;4.78;2.17;;;;;;;9.73;41.17;100220.22;5004804;28;20022;-83
2022/04/18 04:02:22;;;;;;;5.13;2.50;;;;;;;9.25;41.46;100222.41;5005796;28;20034;-84
2022/04/18 04:04:47;;;;;;;6.10;2.08;;;;;;;9.50;41.65;100218.50;5004330;28;20283;-84
2022/04/18 04:07:12;;;;;;;5.80;2.30;;;;;;;9.39;41.32;100212.88;5012201;28;20030;-85
2022/04/18 04:09:38;;;;;;;4.83;1.93;;;;;;;9.31;40.98;100210.56;5025467;28;20278;-84
2022/04/18 04:12:05;;;;;;;5.10;1.88;;;;;;;9.37;40.90;100216.91;5008437;28;20290;-84
2022/04/18 04:14:31;;;;;;;6.07;1.77;;;;;;;9.56;40.97;100209.31;5006470;28;20041;-84
2022/04/18 04:16:57;;;;;;;3.95;1.73;;;;;;;9.73;41.74;100206.59;5004564;28;20111;-83
2022/04/18 04:19:22;;;;;;;6.65;2.60;;;;;;;9.55;43.14;100218.56;5006398;28;20046;-84
2022/04/18 04:21:47;;;;;;;5.47;2.03;;;;;;;9.35;43.58;100211.72;5018466;28;20022;-84
2022/04/18 04:24:12;;;;;;;4.40;2.17;;;;;;;9.28;43.67;100208.31;5026080;28;20049;-83
2022/04/18 04:26:38;;;;;;;11.20;2.42;;;;;;;9.19;44.08;100214.16;5024733;28;20038;-84
2022/04/18 04:29:03;;;;;;;6.22;2.00;;;;;;;9.08;44.30;100207.72;5025602;28;20043;-84
2022/04/18 04:31:29;;;;;;;3.28;1.92;;;;;;;9.20;44.29;100204.09;5012717;28;20045;-83
2022/04/18 04:33:54;;;;;;;2.23;1.30;;;;;;;9.14;44.17;100199.63;5005092;28;20030;-84
2022/04/18 04:36:33;;;;;;;4.20;2.10;;;;;;;9.16;44.02;100209.19;5005812;28;20267;-84
2022/04/18 04:38:58;;;;;;;4.45;2.03;;;;;;;9.18;44.60;100214.41;5004260;28;20014;-83
2022/04/18 04:41:23;;;;;;;3.60;2.10;;;;;;;9.06;45.44;100209.84;5016165;28;20029;-83
2022/04/18 04:43:48;;;;;;;4.60;2.10;;;;;;;9.06;45.16;100215.28;5024189;28;20469;-84
2022/04/18 04:46:14;;;;;;;6.60;2.78;;;;;;;9.14;44.11;100216.78;5024829;28;20713;-84
2022/04/18 04:48:39;;;;;;;7.40;2.95;;;;;;;9.18;42.74;100211.66;5025420;28;20408;-83
2022/04/18 04:51:04;;;;;;;5.47;2.60;;;;;;;9.12;42.91;100218.91;5006161;28;20025;-83
2022/04/18 04:53:29;;;;;;;6.47;2.95;;;;;;;9.25;42.83;100216.97;5025177;28;20021;-83
2022/04/18 04:55:55;;;;;;;7.80;2.63;;;;;;;9.30;43.45;100212.44;5023111;28;20523;-84
2022/04/18 04:58:20;;;;;;;5.10;2.27;;;;;;;9.41;44.00;100220.78;5024324;28;20378;-84
2022/04/18 05:00:45;;;;;;;7.07;1.83;;;;;;;9.31;44.53;100219.56;5016247;28;20268;-83
2022/04/18 05:03:11;;;;;;;4.45;1.70;;;;;;;9.40;43.72;100213.69;5005147;28;20052;-84
2022/04/18 05:05:36;;;;;;;4.60;1.87;;;;;;;9.35;44.52;100206.28;5004472;28;20049;-84
2022/04/18 05:08:01;;;;;;;3.85;1.83;;;;;;;9.22;44.77;100213.66;5017161;28;20294;-84
2022/04/18 05:10:27;;;;;;;4.90;2.35;;;;;;;9.04;43.21;100208.44;5023831;28;20048;-84
2022/04/18 05:12:52;;;;;;;4.30;2.45;;;;;;;9.11;43.11;100218.09;5005436;28;20037;-84
2022/04/18 05:15:19;;;;;;;2.33;1.60;;;;;;;9.38;43.60;100211.22;5024686;28;20026;-83
2022/04/18 05:17:44;;;;;;;4.97;2.00;;;;;;;9.49;43.77;100214.09;5022896;28;20052;-82
2022/04/18 05:20:10;;;;;;;5.03;1.60;;;;;;;9.54;42.42;100220.47;5023992;28;20030;-83
2022/04/18 05:22:35;;;;;;;4.13;1.92;;;;;;;9.71;42.75;100214.19;5023023;28;20265;-84
2022/04/18 05:25:01;;;;;;;5.18;3.00;;;;;;;9.63;42.68;100218.16;5024102;28;20137;-84
2022/04/18 05:27:26;;;;;;;6.00;1.95;;;;;;;9.52;42.17;100222.59;5024215;28;20029;-84
2022/04/18 05:29:51;;;;;;;3.92;1.85;;;;;;;9.50;42.20;100213.06;5023991;28;20469;-83
2022/04/18 05:32:17;;;;;;;5.20;1.80;;;;;;;9.44;42.82;100210.22;5015221;28;20346;-84
2022/04/18 05:34:43;;;;;;;4.35;1.70;;;;;;;9.44;42.59;100206.66;5003109;28;20692;-83
2022/04/18 05:37:08;;;;;;;4.47;2.25;;;;;;;9.45;42.65;100213.78;5004687;28;20026;-84
2022/04/18 05:39:34;;;;;;;3.38;1.40;;;;;;;9.68;42.83;100220.97;5002949;28;20022;-84
2022/04/18 05:42:00;;;;;;;4.80;1.70;;;;;;;9.86;42.18;100224.53;5020849;28;20068;-84
2022/04/18 05:44:25;;;;;;;4.70;1.92;;;;;;;9.99;42.13;100220.59;5023521;28;20519;-84
2022/04/18 05:46:50;;;;;;;5.28;2.38;;;;;;;9.98;41.50;100218.16;5023420;28;20081;-84
2022/04/18 05:49:16;;;;;;;4.45;2.10;;;;;;;9.88;41.33;100227.00;5013797;28;20030;-83
2022/04/18 05:51:41;;;;;;;3.75;1.90;;;;;;;10.03;42.05;100234.56;5001745;28;20025;-83
2022/04/18 05:54:07;;;;;;;4.07;1.63;;;;;;;10.05;41.50;100237.84;5003772;28;20481;-83
2022/04/18 05:56:32;;;;;;;5.10;2.20;;;;;;;10.18;43.40;100235.84;5002490;28;20431;-83
2022/04/18 06:02:00;;;;;;;4.28;2.05;;;;;;;10.12;41.49;100246.69;5003010;28;20275;-84
2022/04/18 06:04:26;;;;;;;3.63;1.88;;;;;;;10.10;42.48;100245.28;5004684;28;20498;-82
2022/04/18 06:06:51;;;;;;;4.10;1.85;;;;;;;10.19;42.13;100246.50;4992265;28;20511;-83
2022/04/18 06:09:16;;;;;;;3.77;2.37;;;;;;;10.18;42.68;100246.75;5005044;28;20022;-84
2022/04/18 06:11:42;;;;;;;5.40;2.90;;;;;;;10.31;42.18;100257.31;5008100;28;20394;-83
2022/04/18 06:14:08;;;;;;;3.90;1.57;;;;;;;10.32;44.38;100244.50;5006724;28;20626;-84
2022/04/18 06:16:33;;;;;;;11.07;3.38;;;;;;;10.29;43.67;100251.28;5008447;28;21055;-84
2022/04/18 06:18:59;;;;;;;5.45;1.40;;;;;;;10.30;44.95;100252.94;5007557;28;20113;-84
2022/04/18 06:21:24;;;;;;;3.03;1.70;;;;;;;10.28;44.77;100255.91;5004600;28;20128;-84
2022/04/18 06:23:50;;;;;;;5.60;2.63;;;;;;;10.21;42.97;100259.91;5003480;28;20053;-83
2022/04/18 06:26:15;;;;;;;4.18;1.73;;;;;;;10.31;44.30;100256.50;5002826;28;20614;-83
2022/04/18 06:28:40;;;;;;;5.63;2.20;;;;;;;10.25;45.84;100256.41;5004487;28;20022;-83
2022/04/18 06:31:06;;;;;;;4.07;1.85;;;;;;;10.21;45.66;100259.91;5010830;28;20041;-84
2022/04/18 06:33:34;;;;;;;4.30;1.67;;;;;;;10.25;45.29;100258.31;5005157;28;20068;-84
2022/04/18 06:35:59;;;;;;;5.38;1.80;;;;;;;10.29;45.30;100267.66;5002443;28;20267;-84
2022/04/18 06:38:25;;;;;;;5.47;1.98;;;;;;;10.38;43.50;100266.13;5004458;28;20029;-84
2022/04/18 06:40:50;;;;;;;4.22;2.20;;;;;;;10.52;44.45;100260.34;5006549;28;20026;-83
2022/04/18 06:43:16;;;;;;;4.70;1.75;;;;;;;10.66;44.61;100260.78;5006557;28;20134;-83
2022/04/18 06:45:41;;;;;;;6.00;2.78;;;;;;;10.67;45.02;100264.34;5007714;28;20461;-82
2022/04/18 06:48:07;;;;;;;3.67;1.60;;;;;;;10.62;45.13;100265.09;5005183;28;20018;-81
2022/04/18 06:50:32;;;;;;;3.45;2.20;;;;;;;10.70;45.78;100272.03;5010146;28;20752;-84
2022/04/18 06:52:57;;;;;;;4.95;1.60;;;;;;;10.71;44.01;100269.06;5021369;28;20530;-83
2022/04/18 06:55:22;;;;;;;5.38;1.50;;;;;;;10.83;44.58;100266.19;5022944;28;20043;-83
2022/04/18 06:57:48;;;;;;;3.92;1.27;;;;;;;10.79;43.44;100275.97;5018051;28;20030;-85
2022/04/18 07:00:14;;;;;;;4.45;2.10;;;;;;;10.95;42.70;100262.50;5006624;28;20030;-83
2022/04/18 07:02:46;;;;;;;2.85;1.70;;;;;;;11.02;45.24;100267.75;5014941;28;20041;-82
2022/04/18 07:05:11;;;;;;;3.50;1.73;;;;;;;10.99;42.59;100260.91;5006282;28;20053;-83
2022/04/18 07:07:36;;;;;;;5.10;1.65;;;;;;;11.14;44.07;100259.44;5017614;28;20033;-83
2022/04/18 07:10:03;;;;;;;3.93;1.60;;;;;;;11.08;42.20;100261.28;5015061;28;20041;-83
2022/04/18 07:12:28;;;;;;;4.78;1.98;;;;;;;11.18;42.64;100255.13;5028347;28;20259;-83
2022/04/18 07:14:55;;;;;;;4.90;2.10;;;;;;;11.16;41.26;100257.28;5022319;28;20021;-84
2022/04/18 07:17:20;;;;;;;4.47;1.67;;;;;;;11.13;41.14;100257.78;5022366;28;20431;-84
2022/04/18 07:19:45;;;;;;;4.20;1.95;;;;;;;11.27;41.39;100259.03;5023689;28;20404;-84
2022/04/18 07:22:10;;;;;;;6.07;2.87;;;;;;;11.31;40.47;100260.16;5007049;28;20407;-83
2022/04/18 07:24:36;;;;;;;5.28;1.67;;;;;;;11.18;40.56;100255.94;5005792;28;20329;-83
2022/04/18 07:27:01;;;;;;;9.40;2.97;;;;;;;11.21;40.89;100255.41;5003931;28;20033;-83
2022/04/18 07:29:30;;;;;;;4.72;1.58;;;;;;;11.38;40.94;100253.66;5009162;28;20028;-83
2022/04/18 07:31:55;;;;;;;4.88;1.67;;;;;;;11.51;40.35;100258.69;5017237;28;20129;-85
2022/04/18 07:34:20;;;;;;;5.73;2.47;;;;;;;11.29;39.90;100259.59;5005211;28;20105;-84
2022/04/18 07:36:46;;;;;;;5.93;2.65;;;;;;;11.29;40.37;100251.41;5005421;28;20272;-83
2022/04/18 07:39:11;;;;;;;4.53;1.70;;;;;;;11.52;40.21;100254.91;5005378;28;20594;-83
2022/04/18 07:41:50;;;;;;;4.97;1.90;;;;;;;11.63;40.75;100252.25;5021155;28;20037;-83
2022/04/18 07:44:15;;;;;;;6.00;2.30;;;;;;;11.56;39.16;100249.72;5024431;28;20030;-83
2022/04/18 07:46:40;;;;;;;6.80;1.83;;;;;;;11.66;40.37;100254.47;5026509;28;20298;-83
2022/04/18 07:49:05;;;;;;;5.28;1.60;;;;;;;11.76;39.82;100254.53;5025033;28;20828;-83
2022/04/18 07:51:42;;;;;;;6.23;1.80;;;;;;;11.78;43.25;100246.09;5008020;28;20029;-83
2022/04/18 07:54:11;;;;;;;6.38;1.92;;;;;;;11.80;43.27;100260.31;5025959;28;20279;-82
2022/04/18 07:56:37;;;;;;;4.28;2.35;;;;;;;11.84;42.64;100255.16;5025204;28;20029;-84
2022/04/18 07:59:02;;;;;;;5.32;1.85;;;;;;;11.89;42.04;100257.94;5008721;28;20034;-83
2022/04/18 08:01:28;;;;;;;7.05;2.78;;;;;;;11.89;44.05;100260.66;5012157;28;20053;-83
2022/04/18 08:03:54;;;;;;;3.70;1.60;;;;;;;11.79;44.41;100264.13;5006637;28;20094;-83
2022/04/18 08:06:19;;;;;;;4.78;2.75;;;;;;;11.80;41.90;100260.31;5005014;28;20062;-84
2022/04/18 08:08:45;;;;;;;3.92;1.98;;;;;;;11.89;44.30;100256.03;5025075;28;20034;-84
2022/04/18 08:11:12;;;;;;;5.50;2.72;;;;;;;11.97;43.72;100257.44;5025253;28;20044;-83
2022/04/18 08:13:40;;;;;;;3.72;1.92;;;;;;;12.06;42.42;100259.69;5025302;28;20025;-84
2022/04/18 08:16:07;;;;;;;3.55;1.85;;;;;;;12.07;44.85;100261.31;5025808;28;20048;-84
2022/04/18 08:18:36;;;;;;;7.18;2.47;;;;;;;12.06;42.29;100256.97;5024381;28;20033;-84
2022/04/18 08:21:01;;;;;;;4.63;2.45;;;;;;;12.18;43.02;100256.78;5017333;28;20117;-83
2022/04/18 08:23:27;;;;;;;10.93;3.88;;;;;;;12.20;45.25;100258.19;5003346;28;20682;-83
2022/04/18 08:25:52;;;;;;;4.50;2.67;;;;;;;12.24;42.64;100256.53;5005025;28;20092;-83
2022/04/18 08:28:17;;;;;;;8.67;2.90;;;;;;;12.32;42.69;100249.78;5005373;28;20263;-82
2022/04/18 08:30:42;;;;;;;4.00;2.15;;;;;;;12.33;41.40;100247.84;5004737;28;20267;-84
2022/04/18 08:33:08;;;;;;;6.60;2.33;;;;;;;12.44;41.56;100252.31;5004741;28;20054;-84
2022/04/18 08:35:33;;;;;;;10.43;3.55;;;;;;;12.56;41.72;100248.53;5004123;28;20029;-83
2022/04/18 08:37:59;;;;;;;5.00;2.50;;;;;;;12.64;41.23;100245.28;5005802;28;20362;-84
2022/04/18 08:43:09;;;;;;;5.20;2.08;;;;;;;12.79;41.86;100246.44;5021831;28;20152;-82
2022/04/18 08:45:37;;;;;;;7.78;2.63;;;;;;;12.77;41.05;100245.88;5024568;28;20096;-81
2022/04/18 08:53:32;;;;;;;5.13;2.00;;;;;;;13.08;40.36;100235.00;5024110;28;19924;-84
2022/04/18 08:55:59;;;;;;;6.00;2.17;;;;;;;13.11;39.72;100237.22;5025085;28;20068;-84
2022/04/18 08:58:26;;;;;;;6.32;2.92;;;;;;;13.24;40.89;100230.38;5024455;28;20033;-84
2022/04/18 09:00:53;;;;;;;6.30;2.47;;;;;;;13.31;40.17;100225.47;5023756;28;20439;-84
2022/04/18 09:03:18;;;;;;;4.68;2.10;;;;;;;13.36;40.96;100232.91;5007248;28;20045;-84
2022/04/18 09:05:44;;;;;;;3.03;1.58;;;;;;;13.46;39.41;100232.06;5003473;28;20042;-83
2022/04/18 09:08:10;;;;;;;3.67;2.10;;;;;;;13.54;38.71;100225.25;5018899;28;20049;-83
2022/04/18 09:10:37;;;;;;;3.75;1.92;;;;;;;13.54;38.54;100222.53;5022762;28;20099;-84
2022/04/18 09:13:10;;;;;;;5.10;2.30;;;;;;;13.62;39.41;100224.72;5025053;28;20455;-84
2022/04/18 09:15:43;;;;;;;3.28;1.55;;;;;;;13.65;39.15;100220.59;5023325;28;20124;-84
2022/04/18 09:18:15;;;;;;;7.28;2.88;;;;;;;13.77;38.74;100209.34;5023781;28;20033;-84
2022/04/18 09:20:43;;;;;;;4.97;1.88;;;;;;;13.95;38.95;100207.16;5018781;28;20084;-84
2022/04/18 09:23:29;;;;;;;7.40;2.35;;;;;;;14.08;39.12;100213.97;5003383;28;20057;-84
2022/04/18 09:26:05;;;;;;;3.83;2.17;;;;;;;14.19;38.58;100209.28;5005171;28;20044;-83
2022/04/18 09:28:35;;;;;;;5.68;2.83;;;;;;;14.42;39.30;100209.78;5003720;28;20029;-83
2022/04/18 09:31:03;;;;;;;5.47;2.58;;;;;;;14.48;38.32;100195.72;5011535;28;20116;-83
2022/04/18 09:33:31;;;;;;;5.53;2.10;;;;;;;14.56;36.57;100199.81;5005752;28;20096;-84
2022/04/18 09:36:19;;;;;;;6.25;2.70;;;;;;;14.62;36.87;100192.41;5003497;28;20025;-83
2022/04/18 09:38:52;;;;;;;4.43;1.77;;;;;;;14.69;36.48;100194.81;5004943;28;20029;-83
2022/04/18 09:41:26;;;;;;;4.03;1.95;;;;;;;14.80;35.79;100185.44;5013389;28;20116;-85
2022/04/18 09:43:53;;;;;;;7.88;2.03;;;;;;;14.89;35.50;100193.91;5023065;28;20846;-84
2022/04/18 09:46:19;;;;;;;4.22;1.60;;;;;;;15.03;35.35;100191.38;5023486;28;20026;-84
2022/04/18 09:48:46;;;;;;;6.10;2.63;;;;;;;15.06;34.67;100189.97;5023177;28;20028;-84
2022/04/18 09:51:26;;;;;;;5.22;2.22;;;;;;;15.16;35.09;100186.34;5023616;28;20118;-84
2022/04/18 09:53:57;;;;;;;5.43;2.28;;;;;;;15.32;33.95;100183.47;5022334;28;20017;-83
2022/04/18 09:56:23;;;;;;;4.82;2.10;;;;;;;15.45;33.73;100182.00;5023910;28;20039;-83
2022/04/18 09:58:49;;;;;;;5.32;1.65;;;;;;;15.54;32.49;100171.22;5023158;28;20433;-84
2022/04/18 10:01:16;;;;;;;3.70;2.15;;;;;;;15.62;33.21;100167.84;5021928;28;20044;-84
2022/04/18 10:07:10;;;;;;;4.40;1.80;;;;;;;15.97;31.68;100162.28;4993933;28;20056;-84
2022/04/18 10:09:40;;;;;;;3.90;1.40;;;;;;;16.09;31.91;100164.63;5023813;28;20037;-84
2022/04/18 10:12:10;;;;;;;4.68;2.05;;;;;;;16.14;30.73;100152.78;5023090;28;20125;-84
2022/04/18 10:14:40;;;;;;;4.05;1.85;;;;;;;16.17;29.99;100147.50;5022576;28;20033;-84
2022/04/18 10:17:07;;;;;;;4.93;1.90;;;;;;;16.30;31.74;100145.16;5023265;28;20068;-84
2022/04/18 10:19:57;;;;;;;5.82;2.28;;;;;;;16.42;32.01;100137.28;5022139;28;20037;-85
2022/04/18 10:22:43;;;;;;;6.88;1.85;;;;;;;16.52;31.15;100138.25;5021629;28;20500;-84
2022/04/18 10:25:15;;;;;;;4.03;1.90;;;;;;;16.62;31.13;100129.06;5023620;28;20040;-84
2022/04/18 10:28:04;;;;;;;4.55;2.17;;;;;;;16.69;30.61;100133.09;5021968;28;20029;-84
2022/04/18 10:30:35;;;;;;;5.20;1.63;;;;;;;16.78;30.64;100124.16;5023155;28;20021;-85
2022/04/18 10:33:01;;;;;;;4.18;2.03;;;;;;;16.87;31.39;100118.78;5007470;28;20030;-85
2022/04/18 10:35:27;;;;;;;4.38;2.17;;;;;;;16.87;30.89;100114.09;5003803;28;20056;-84
2022/04/18 10:37:55;;;;;;;5.53;2.30;;;;;;;17.08;31.45;100113.78;5003935;28;20074;-85
2022/04/18 10:40:23;;;;;;;5.78;2.58;;;;;;;17.23;32.03;100109.16;5004270;28;20267;-84
2022/04/18 10:42:48;;;;;;;6.07;2.85;;;;;;;17.26;31.06;100112.13;5023970;28;20187;-83
2022/04/18 10:45:18;;;;;;;4.63;2.13;;;;;;;17.28;30.48;100109.06;5021228;28;20048;-83
2022/04/18 10:47:55;;;;;;;7.65;1.88;;;;;;;17.39;30.33;100101.44;5023495;28;20112;-84
2022/04/18 10:50:26;;;;;;;4.20;1.50;;;;;;;17.29;28.66;100102.44;5021940;28;20030;-84
2022/04/18 10:53:13;;;;;;;7.72;2.13;;;;;;;17.56;28.96;100108.31;5022905;28;20067;-84
2022/04/18 10:56:00;;;;;;;3.22;1.15;;;;;;;17.68;26.82;100096.78;5026091;28;20036;-84
2022/04/18 10:58:28;;;;;;;2.40;1.42;;;;;;;17.69;27.46;100096.50;5024064;28;20125;-85
2022/04/18 11:00:57;;;;;;;4.30;1.42;;;;;;;17.58;27.86;100101.38;5019446;28;20043;-84
2022/04/18 11:03:39;;;;;;;4.13;1.45;;;;;;;17.93;28.99;100108.44;5007260;28;20033;-84
2022/04/18 11:06:10;;;;;;;2.80;1.60;;;;;;;18.11;29.11;100098.44;5006612;28;20225;-84
2022/04/18 11:08:38;;;;;;;3.45;1.40;;;;;;;18.18;29.08;100098.84;5024670;28;20032;-84
2022/04/18 11:11:14;;;;;;;7.35;2.63;;;;;;;18.12;27.68;100099.25;5025102;28;20052;-84
2022/04/18 11:13:42;;;;;;;2.47;1.23;;;;;;;18.27;28.44;100095.38;5026797;28;20472;-86
2022/04/18 11:16:23;;;;;;;6.68;2.30;;;;;;;18.37;28.34;100094.31;5024882;28;20073;-84
2022/04/18 11:19:07;;;;;;;5.30;2.38;;;;;;;18.34;28.65;100083.91;5026950;28;20160;-84
2022/04/18 11:21:58;;;;;;;6.70;3.00;;;;;;;18.49;28.36;100075.28;5026533;28;20037;-84
2022/04/18 11:24:42;;;;;;;5.43;2.30;;;;;;;18.50;28.25;100073.34;5024999;28;20309;-83
2022/04/18 11:27:16;;;;;;;5.18;2.00;;;;;;;18.64;28.76;100067.78;5025368;28;20034;-85
2022/04/18 11:29:44;;;;;;;6.80;2.45;;;;;;;18.70;27.65;100074.81;5026373;28;20223;-84
2022/04/18 11:32:14;;;;;;;3.60;2.10;;;;;;;18.82;27.58;100065.13;5007296;28;20412;-85
2022/04/18 11:34:43;;;;;;;4.80;2.50;;;;;;;19.01;27.15;100068.56;5007418;28;20034;-84
2022/04/18 11:37:10;;;;;;;4.68;2.70;;;;;;;18.94;27.93;100062.63;5005613;28;20030;-85
2022/04/18 11:39:48;;;;;;;6.38;1.90;;;;;;;19.01;27.82;100060.25;5007315;28;20444;-85
2022/04/18 11:42:18;;;;;;;4.60;2.05;;;;;;;19.10;27.86;100056.75;5005387;28;20490;-85
2022/04/18 11:44:45;;;;;;;4.38;1.70;;;;;;;19.14;27.67;100054.97;5006949;28;20060;-85
2022/04/18 11:47:20;;;;;;;4.32;2.35;;;;;;;19.25;27.70;100061.88;5006594;28;20029;-84
2022/04/18 11:49:46;;;;;;;4.93;2.30;;;;;;;19.41;28.34;100058.72;5005849;28;20088;-85
2022/04/18 11:52:19;;;;;;;6.97;2.60;;;;;;;19.39;26.86;100055.44;5024353;28;20025;-84
2022/04/18 11:55:02;;;;;;;6.05;2.22;;;;;;;19.65;27.01;100057.50;5024964;28;20062;-84
2022/04/18 12:06:44;;;;;;;7.07;2.17;;;;;;;19.63;28.59;100053.44;5022401;28;20499;-84
2022/04/18 12:08:31;;;;;;;6.15;2.38;;;;;;;19.56;26.92;100042.84;5022210;28;20554;-84